NDI046 SKBO-SKCL
Flight info
| Callsign | NDI046 |
|---|---|
| Flight time | 0h 41m |
| Altitude | 28000 |
| Route | VAPOM4R OREGA OREGA5A |
| Aircraft | C25C/M-SDE2E3FGHRWXY/LB1 |
Departure
| Time | 2026-05-09 03:53 |
|---|---|
| Airport | El Dorado International Airport (SKBO) |
Arrival
| Time | 2026-05-09 04:34 |
|---|---|
| Airport | Alfonso Bonilla Aragon International Airport (SKCL) |
| Time | Latitude | Longitude | Altitude | Speed | Heading |
|---|---|---|---|---|---|
| 2026-05-09 03:38 | 4.70437 | -74.14594 | 8359 ft | 0 kts | 216° |
| 2026-05-09 03:47 | 4.70435 | -74.14595 | 8359 ft | 0 kts | 216° |
| 2026-05-09 03:47 | 4.70434 | -74.14596 | 8359 ft | 1 kts | 216° |
| 2026-05-09 03:47 | 4.70433 | -74.14596 | 8359 ft | 1 kts | 217° |
| 2026-05-09 03:47 | 4.70449 | -74.14633 | 8359 ft | 12 kts | 306° |
| 2026-05-09 03:48 | 4.70500 | -74.14702 | 8359 ft | 12 kts | 313° |
| 2026-05-09 03:48 | 4.70524 | -74.14719 | 8359 ft | 0 kts | 324° |
| 2026-05-09 03:48 | 4.70537 | -74.14725 | 8359 ft | 8 kts | 346° |
| 2026-05-09 03:48 | 4.70580 | -74.14757 | 8359 ft | 0 kts | 311° |
| 2026-05-09 03:49 | 4.70631 | -74.14767 | 8359 ft | 12 kts | 34° |
| 2026-05-09 03:49 | 4.70720 | -74.14731 | 8359 ft | 14 kts | 335° |
| 2026-05-09 03:49 | 4.70783 | -74.14798 | 8359 ft | 13 kts | 310° |
| 2026-05-09 03:49 | 4.70836 | -74.14865 | 8359 ft | 12 kts | 304° |
| 2026-05-09 03:50 | 4.70880 | -74.14931 | 8359 ft | 11 kts | 304° |
| 2026-05-09 03:50 | 4.70924 | -74.14991 | 8359 ft | 11 kts | 311° |
| 2026-05-09 03:50 | 4.70973 | -74.15050 | 8359 ft | 11 kts | 307° |
| 2026-05-09 03:50 | 4.71028 | -74.15120 | 8359 ft | 14 kts | 308° |
| 2026-05-09 03:51 | 4.71093 | -74.15203 | 8360 ft | 16 kts | 308° |
| 2026-05-09 03:51 | 4.71162 | -74.15288 | 8360 ft | 15 kts | 330° |
| 2026-05-09 03:51 | 4.71251 | -74.15276 | 8360 ft | 13 kts | 48° |
| 2026-05-09 03:51 | 4.71308 | -74.15212 | 8359 ft | 12 kts | 48° |
| 2026-05-09 03:52 | 4.71312 | -74.15208 | 8359 ft | 0 kts | 48° |
| 2026-05-09 03:52 | 4.71315 | -74.15204 | 8359 ft | 2 kts | 48° |
| 2026-05-09 03:52 | 4.71324 | -74.15188 | 8359 ft | 6 kts | 71° |
| 2026-05-09 03:53 | 4.71233 | -74.15065 | 8358 ft | 63 kts | 127° |
| 2026-05-09 03:53 | 4.70759 | -74.14437 | 8360 ft | 156 kts | 127° |
| 2026-05-09 03:53 | 4.69959 | -74.13423 | 8521 ft | 212 kts | 127° |
| 2026-05-09 03:53 | 4.68973 | -74.12177 | 9309 ft | 237 kts | 127° |
| 2026-05-09 03:54 | 4.67974 | -74.10929 | 10527 ft | 219 kts | 128° |
| 2026-05-09 03:54 | 4.67028 | -74.09829 | 11314 ft | 200 kts | 135° |
| 2026-05-09 03:54 | 4.65799 | -74.09238 | 11899 ft | 206 kts | 178° |
| 2026-05-09 03:54 | 4.64840 | -74.10173 | 12421 ft | 213 kts | 259° |
| 2026-05-09 03:55 | 4.64659 | -74.11698 | 12373 ft | 245 kts | 250° |
| 2026-05-09 03:55 | 4.63709 | -74.13216 | 11847 ft | 266 kts | 233° |
| 2026-05-09 03:55 | 4.62633 | -74.14707 | 11703 ft | 262 kts | 233° |
| 2026-05-09 03:55 | 4.61579 | -74.16150 | 11774 ft | 251 kts | 232° |
| 2026-05-09 03:56 | 4.60571 | -74.17522 | 11982 ft | 238 kts | 233° |
| 2026-05-09 03:56 | 4.59936 | -74.19025 | 12136 ft | 242 kts | 262° |
| 2026-05-09 03:56 | 4.59778 | -74.20759 | 12316 ft | 254 kts | 267° |
| 2026-05-09 03:56 | 4.59720 | -74.22544 | 12501 ft | 263 kts | 269° |
| 2026-05-09 03:57 | 4.59686 | -74.24404 | 12702 ft | 270 kts | 270° |
| 2026-05-09 03:57 | 4.59654 | -74.26315 | 12913 ft | 276 kts | 269° |
| 2026-05-09 03:57 | 4.59589 | -74.28255 | 13135 ft | 281 kts | 264° |
| 2026-05-09 03:57 | 4.58979 | -74.30113 | 13332 ft | 284 kts | 239° |
| 2026-05-09 03:58 | 4.58241 | -74.31262 | 13492 ft | 308 kts | 236° |
| 2026-05-09 03:58 | 4.56944 | -74.33173 | 13737 ft | 353 kts | 234° |
| 2026-05-09 03:58 | 4.54928 | -74.35994 | 14024 ft | 396 kts | 233° |
| 2026-05-09 03:58 | 4.53874 | -74.37466 | 14176 ft | 375 kts | 234° |
| 2026-05-09 03:59 | 4.52345 | -74.39588 | 14376 ft | 375 kts | 233° |
| 2026-05-09 03:59 | 4.50839 | -74.41684 | 14571 ft | 375 kts | 233° |
| 2026-05-09 03:59 | 4.49310 | -74.43807 | 14770 ft | 375 kts | 234° |
| 2026-05-09 03:59 | 4.47785 | -74.45934 | 14978 ft | 376 kts | 234° |
| 2026-05-09 04:00 | 4.46248 | -74.48064 | 15192 ft | 377 kts | 233° |
| 2026-05-09 04:00 | 4.44720 | -74.50200 | 15340 ft | 377 kts | 234° |
| 2026-05-09 04:00 | 4.43265 | -74.52404 | 15553 ft | 377 kts | 237° |
| 2026-05-09 04:00 | 4.42237 | -74.54804 | 15739 ft | 378 kts | 259° |
| 2026-05-09 04:01 | 4.42316 | -74.57430 | 15939 ft | 378 kts | 279° |
| 2026-05-09 04:01 | 4.42818 | -74.60017 | 16155 ft | 378 kts | 284° |
| 2026-05-09 04:01 | 4.43591 | -74.62528 | 16370 ft | 377 kts | 290° |
| 2026-05-09 04:01 | 4.44006 | -74.65067 | 16526 ft | 377 kts | 266° |
| 2026-05-09 04:02 | 4.43446 | -74.67633 | 16732 ft | 377 kts | 253° |
| 2026-05-09 04:02 | 4.42534 | -74.70085 | 16952 ft | 377 kts | 244° |
| 2026-05-09 04:02 | 4.41152 | -74.72325 | 17158 ft | 380 kts | 234° |
| 2026-05-09 04:02 | 4.39712 | -74.74559 | 17383 ft | 382 kts | 240° |
| 2026-05-09 04:03 | 4.38381 | -74.76875 | 17607 ft | 384 kts | 239° |
| 2026-05-09 04:03 | 4.37000 | -74.79174 | 17913 ft | 384 kts | 239° |
| 2026-05-09 04:03 | 4.35625 | -74.81451 | 18369 ft | 379 kts | 238° |
| 2026-05-09 04:03 | 4.34285 | -74.83674 | 18759 ft | 375 kts | 239° |
| 2026-05-09 04:04 | 4.32958 | -74.85904 | 19154 ft | 370 kts | 239° |
| 2026-05-09 04:04 | 4.31633 | -74.88113 | 19556 ft | 367 kts | 239° |
| 2026-05-09 04:04 | 4.30324 | -74.90297 | 19935 ft | 365 kts | 238° |
| 2026-05-09 04:04 | 4.29004 | -74.92494 | 20059 ft | 371 kts | 239° |
| 2026-05-09 04:05 | 4.27661 | -74.94738 | 20077 ft | 380 kts | 238° |
| 2026-05-09 04:05 | 4.26285 | -74.97030 | 20063 ft | 387 kts | 239° |
| 2026-05-09 04:05 | 4.24884 | -74.99370 | 20067 ft | 395 kts | 238° |
| 2026-05-09 04:05 | 4.23458 | -75.01745 | 20034 ft | 398 kts | 239° |
| 2026-05-09 04:06 | 4.22050 | -75.04098 | 20035 ft | 400 kts | 238° |
| 2026-05-09 04:06 | 4.20599 | -75.06498 | 20074 ft | 403 kts | 238° |
| 2026-05-09 04:06 | 4.19129 | -75.08895 | 20076 ft | 404 kts | 238° |
| 2026-05-09 04:06 | 4.17638 | -75.11297 | 20079 ft | 406 kts | 238° |
| 2026-05-09 04:07 | 4.16125 | -75.13700 | 20075 ft | 409 kts | 237° |
| 2026-05-09 04:07 | 4.14588 | -75.16112 | 20075 ft | 410 kts | 237° |
| 2026-05-09 04:07 | 4.13058 | -75.18483 | 20075 ft | 411 kts | 237° |
| 2026-05-09 04:07 | 4.11486 | -75.20887 | 20055 ft | 412 kts | 236° |
| 2026-05-09 04:08 | 4.10022 | -75.23349 | 20064 ft | 413 kts | 244° |
| 2026-05-09 04:08 | 4.08821 | -75.25966 | 20065 ft | 413 kts | 245° |
| 2026-05-09 04:08 | 4.07502 | -75.28528 | 20064 ft | 413 kts | 239° |
| 2026-05-09 04:08 | 4.05946 | -75.30932 | 20063 ft | 408 kts | 237° |
| 2026-05-09 04:09 | 4.04461 | -75.33344 | 20060 ft | 404 kts | 239° |
| 2026-05-09 04:09 | 4.03068 | -75.35743 | 20100 ft | 401 kts | 239° |
| 2026-05-09 04:09 | 4.01648 | -75.38142 | 20098 ft | 399 kts | 238° |
| 2026-05-09 04:09 | 4.00204 | -75.40525 | 20096 ft | 397 kts | 238° |
| 2026-05-09 04:10 | 3.98777 | -75.42886 | 20091 ft | 396 kts | 238° |
| 2026-05-09 04:10 | 3.97356 | -75.45259 | 20058 ft | 395 kts | 239° |
| 2026-05-09 04:10 | 3.95968 | -75.47584 | 20057 ft | 394 kts | 238° |
| 2026-05-09 04:10 | 3.94552 | -75.49937 | 20105 ft | 393 kts | 238° |
| 2026-05-09 04:11 | 3.93146 | -75.52281 | 20103 ft | 392 kts | 238° |
| 2026-05-09 04:11 | 3.91739 | -75.54618 | 20103 ft | 392 kts | 238° |
| 2026-05-09 04:11 | 3.90323 | -75.56956 | 20101 ft | 391 kts | 238° |
| 2026-05-09 04:11 | 3.88906 | -75.59281 | 20104 ft | 391 kts | 238° |
| 2026-05-09 04:12 | 3.87487 | -75.61608 | 20099 ft | 391 kts | 239° |
| 2026-05-09 04:12 | 3.86105 | -75.64021 | 20102 ft | 407 kts | 239° |
| 2026-05-09 04:12 | 3.84642 | -75.66500 | 20134 ft | 420 kts | 238° |
| 2026-05-09 04:12 | 3.83128 | -75.68976 | 20120 ft | 416 kts | 238° |
| 2026-05-09 04:13 | 3.81664 | -75.71392 | 20118 ft | 397 kts | 238° |
| 2026-05-09 04:13 | 3.80277 | -75.73723 | 20114 ft | 383 kts | 239° |
| 2026-05-09 04:13 | 3.78931 | -75.75970 | 20108 ft | 372 kts | 238° |
| 2026-05-09 04:13 | 3.77613 | -75.78164 | 20103 ft | 363 kts | 238° |
| 2026-05-09 04:14 | 3.76324 | -75.80306 | 20117 ft | 356 kts | 238° |
| 2026-05-09 04:14 | 3.75058 | -75.82417 | 20116 ft | 351 kts | 238° |
| 2026-05-09 04:14 | 3.73809 | -75.84497 | 20118 ft | 346 kts | 238° |
| 2026-05-09 04:14 | 3.72575 | -75.86556 | 20118 ft | 343 kts | 238° |
| 2026-05-09 04:15 | 3.71346 | -75.88598 | 20120 ft | 339 kts | 238° |
| 2026-05-09 04:15 | 3.70149 | -75.90594 | 20118 ft | 337 kts | 238° |
| 2026-05-09 04:15 | 3.68948 | -75.92596 | 20105 ft | 336 kts | 238° |
| 2026-05-09 04:15 | 3.67742 | -75.94598 | 20091 ft | 334 kts | 238° |
| 2026-05-09 04:16 | 3.66548 | -75.96591 | 20088 ft | 333 kts | 238° |
| 2026-05-09 04:16 | 3.65359 | -75.98577 | 20087 ft | 332 kts | 238° |
| 2026-05-09 04:16 | 3.64133 | -76.00618 | 20092 ft | 359 kts | 238° |
| 2026-05-09 04:16 | 3.62774 | -76.02868 | 20105 ft | 394 kts | 238° |
| 2026-05-09 04:17 | 3.61325 | -76.05281 | 20101 ft | 422 kts | 239° |
| 2026-05-09 04:17 | 3.59825 | -76.07789 | 19946 ft | 407 kts | 238° |
| 2026-05-09 04:17 | 3.58417 | -76.10135 | 19547 ft | 374 kts | 238° |
| 2026-05-09 04:17 | 3.57132 | -76.12273 | 19134 ft | 343 kts | 239° |
| 2026-05-09 04:18 | 3.55944 | -76.14247 | 18723 ft | 319 kts | 238° |
| 2026-05-09 04:18 | 3.54865 | -76.16046 | 18336 ft | 282 kts | 239° |
| 2026-05-09 04:18 | 3.53904 | -76.17644 | 17855 ft | 256 kts | 239° |
| 2026-05-09 04:18 | 3.53031 | -76.19100 | 17355 ft | 239 kts | 239° |
| 2026-05-09 04:19 | 3.52191 | -76.20494 | 16848 ft | 228 kts | 239° |
| 2026-05-09 04:19 | 3.51407 | -76.21803 | 16325 ft | 215 kts | 238° |
| 2026-05-09 04:19 | 3.50645 | -76.23070 | 15911 ft | 210 kts | 239° |
| 2026-05-09 04:19 | 3.49906 | -76.24299 | 15490 ft | 201 kts | 238° |
| 2026-05-09 04:20 | 3.49208 | -76.25466 | 15073 ft | 190 kts | 239° |
| 2026-05-09 04:20 | 3.48538 | -76.26574 | 14646 ft | 182 kts | 238° |
| 2026-05-09 04:20 | 3.47881 | -76.27674 | 14252 ft | 186 kts | 237° |
| 2026-05-09 04:20 | 3.46875 | -76.28438 | 13858 ft | 187 kts | 195° |
| 2026-05-09 04:21 | 3.45587 | -76.28648 | 13434 ft | 187 kts | 181° |
| 2026-05-09 04:21 | 3.44304 | -76.28712 | 13021 ft | 188 kts | 186° |
| 2026-05-09 04:21 | 3.41717 | -76.29004 | 12204 ft | 187 kts | 179° |
| 2026-05-09 04:22 | 3.40416 | -76.28979 | 11803 ft | 186 kts | 178° |
| 2026-05-09 04:22 | 3.39146 | -76.28979 | 11474 ft | 180 kts | 179° |
| 2026-05-09 04:22 | 3.37899 | -76.29013 | 11143 ft | 179 kts | 182° |
| 2026-05-09 04:22 | 3.36665 | -76.29119 | 10816 ft | 177 kts | 185° |
| 2026-05-09 04:23 | 3.35440 | -76.29241 | 10491 ft | 176 kts | 185° |
| 2026-05-09 04:23 | 3.34310 | -76.29452 | 10193 ft | 152 kts | 195° |
| 2026-05-09 04:23 | 3.33387 | -76.29772 | 9851 ft | 132 kts | 201° |
| 2026-05-09 04:23 | 3.32578 | -76.30181 | 9463 ft | 130 kts | 210° |
| 2026-05-09 04:24 | 3.31751 | -76.30667 | 9072 ft | 139 kts | 210° |
| 2026-05-09 04:24 | 3.30960 | -76.31185 | 8720 ft | 133 kts | 214° |
| 2026-05-09 04:24 | 3.30137 | -76.31737 | 8336 ft | 148 kts | 217° |
| 2026-05-09 04:24 | 3.29395 | -76.32477 | 8017 ft | 153 kts | 230° |
| 2026-05-09 04:25 | 3.28729 | -76.33324 | 7695 ft | 156 kts | 236° |
| 2026-05-09 04:25 | 3.28330 | -76.34300 | 7550 ft | 146 kts | 255° |
| 2026-05-09 04:25 | 3.28344 | -76.35265 | 7491 ft | 135 kts | 282° |
| 2026-05-09 04:25 | 3.28480 | -76.36190 | 7457 ft | 134 kts | 277° |
| 2026-05-09 04:26 | 3.28643 | -76.37150 | 7460 ft | 148 kts | 279° |
| 2026-05-09 04:26 | 3.28773 | -76.38233 | 7481 ft | 171 kts | 276° |
| 2026-05-09 04:26 | 3.28915 | -76.39483 | 7483 ft | 189 kts | 276° |
| 2026-05-09 04:26 | 3.29036 | -76.40732 | 7470 ft | 166 kts | 276° |
| 2026-05-09 04:27 | 3.29080 | -76.41809 | 7462 ft | 147 kts | 261° |
| 2026-05-09 04:27 | 3.28923 | -76.42764 | 7452 ft | 129 kts | 265° |
| 2026-05-09 04:27 | 3.29288 | -76.43454 | 7362 ft | 118 kts | 345° |
| 2026-05-09 04:27 | 3.30047 | -76.43530 | 7377 ft | 104 kts | 3° |
| 2026-05-09 04:28 | 3.30733 | -76.43302 | 7234 ft | 110 kts | 18° |
| 2026-05-09 04:28 | 3.31448 | -76.42986 | 7047 ft | 115 kts | 39° |
| 2026-05-09 04:28 | 3.32129 | -76.42512 | 6883 ft | 124 kts | 31° |
| 2026-05-09 04:28 | 3.32893 | -76.42067 | 6734 ft | 129 kts | 24° |
| 2026-05-09 04:29 | 3.33737 | -76.41736 | 6587 ft | 131 kts | 19° |
| 2026-05-09 04:29 | 3.34664 | -76.41444 | 6419 ft | 148 kts | 11° |
| 2026-05-09 04:29 | 3.35729 | -76.41328 | 6266 ft | 158 kts | 8° |
| 2026-05-09 04:29 | 3.36848 | -76.41211 | 6104 ft | 164 kts | 4° |
| 2026-05-09 04:30 | 3.37988 | -76.41050 | 5939 ft | 167 kts | 9° |
| 2026-05-09 04:30 | 3.39120 | -76.40817 | 5773 ft | 169 kts | 15° |
| 2026-05-09 04:30 | 3.40270 | -76.40535 | 5602 ft | 170 kts | 13° |
| 2026-05-09 04:30 | 3.41400 | -76.40340 | 5531 ft | 158 kts | 7° |
| 2026-05-09 04:31 | 3.42458 | -76.40211 | 5494 ft | 148 kts | 10° |
| 2026-05-09 04:31 | 3.43437 | -76.39977 | 5462 ft | 142 kts | 13° |
| 2026-05-09 04:31 | 3.44373 | -76.39886 | 5438 ft | 126 kts | 10° |
| 2026-05-09 04:31 | 3.45232 | -76.39735 | 5192 ft | 128 kts | 5° |
| 2026-05-09 04:32 | 3.46079 | -76.39589 | 5071 ft | 119 kts | 11° |
| 2026-05-09 04:32 | 3.46893 | -76.39471 | 4738 ft | 116 kts | 12° |
| 2026-05-09 04:32 | 3.47686 | -76.39326 | 4348 ft | 116 kts | 7° |
| 2026-05-09 04:32 | 3.48460 | -76.39175 | 4062 ft | 105 kts | 10° |
| 2026-05-09 04:33 | 3.49145 | -76.39080 | 3836 ft | 97 kts | 13° |
| 2026-05-09 04:33 | 3.49848 | -76.38922 | 3722 ft | 110 kts | 13° |
| 2026-05-09 04:33 | 3.50683 | -76.38804 | 3699 ft | 141 kts | 6° |
| 2026-05-09 04:33 | 3.51556 | -76.38626 | 3590 ft | 112 kts | 12° |
| 2026-05-09 04:34 | 3.52328 | -76.38506 | 3308 ft | 108 kts | 8° |
| 2026-05-09 04:34 | 3.53050 | -76.38377 | 3178 ft | 106 kts | 9° |
| 2026-05-09 04:34 | 3.53747 | -76.38261 | 3157 ft | 92 kts | 8° |
| 2026-05-09 04:34 | 3.54047 | -76.38217 | 3159 ft | 5 kts | 358° |
| 2026-05-09 04:35 | 3.54087 | -76.38253 | 3159 ft | 11 kts | 286° |
| 2026-05-09 04:35 | 3.54102 | -76.38343 | 3157 ft | 14 kts | 279° |
| 2026-05-09 04:35 | 3.54133 | -76.38417 | 3157 ft | 0 kts | 302° |
| 2026-05-09 04:36 | 3.54136 | -76.38422 | 3157 ft | 5 kts | 302° |
| 2026-05-09 04:36 | 3.54184 | -76.38494 | 3157 ft | 15 kts | 304° |
| 2026-05-09 04:36 | 3.54196 | -76.38571 | 3157 ft | 12 kts | 182° |
| 2026-05-09 04:36 | 3.54109 | -76.38581 | 3157 ft | 13 kts | 190° |
| 2026-05-09 04:37 | 3.54055 | -76.38591 | 3157 ft | 7 kts | 190° |
| 2026-05-09 04:37 | 3.54001 | -76.38601 | 3156 ft | 1 kts | 190° |
| 2026-05-09 04:37 | 3.53992 | -76.38603 | 3156 ft | 3 kts | 188° |
| 2026-05-09 04:37 | 3.53963 | -76.38607 | 3156 ft | 5 kts | 188° |
| 2026-05-09 04:38 | 3.53922 | -76.38613 | 3156 ft | 6 kts | 190° |
| 2026-05-09 04:38 | 3.53906 | -76.38647 | 3156 ft | 7 kts | 266° |
| 2026-05-09 04:38 | 3.53912 | -76.38697 | 3156 ft | 8 kts | 278° |
| 2026-05-09 04:38 | 3.53920 | -76.38755 | 3156 ft | 9 kts | 278° |
| 2026-05-09 04:39 | 3.53919 | -76.38788 | 3156 ft | 4 kts | 246° |
| 2026-05-09 04:39 | 3.53908 | -76.38821 | 3156 ft | 6 kts | 257° |
| 2026-05-09 04:39 | 3.53909 | -76.38846 | 3156 ft | 2 kts | 280° |
| 2026-05-09 04:39 | 3.53910 | -76.38850 | 3156 ft | 0 kts | 280° |